SCPL weather

Calpulli Airport
Paillaco, Los Ríos Region, Chile

Public forecast

Using degrees Celsius for public forecast. Weather courtesy of forecast.io.

METAR (pilot weather report)

Report is more than 6 hours old.

Closest report is Cañal Bajo Carlos - Hott Siebert Airport, 34.2 nm (63.4 km) SSW. Retrieved 2019/03/20 21:00 UTC (8 hours ago):

SCJO 202100Z 16006KT CAVOK 20/06 Q1018

TAF (pilot weather forecast)

Forecast is more than 12 hours old.

Closest forecast is Cañal Bajo Carlos - Hott Siebert Airport, 34.2 nm (63.4 km) SSW. Retrieved 2019/03/20 12:33 UTC (17 hours ago):

TAF SCJO 201010Z 2012/2024 VRB03KT CAVOK TN02/2012Z TX18/2019Z BECMG 2015/2017 18007KT